createdAt,value
2023-04-29T00:01:59.297Z,100331.05
2023-04-29T00:05:05.465Z,100327.42
2023-04-29T00:08:09.798Z,100328.01
2023-04-29T00:11:13.821Z,100327.09
2023-04-29T00:14:17.923Z,100329.74
2023-04-29T00:17:21.876Z,100329.06
2023-04-29T00:20:25.978Z,100325.90
2023-04-29T00:23:29.882Z,100329.31
2023-04-29T00:26:35.019Z,100328.05
2023-04-29T00:29:38.980Z,100325.77
2023-04-29T00:32:44.726Z,100321.78
2023-04-29T00:35:48.912Z,100314.02
2023-04-29T00:38:53.153Z,100313.67
2023-04-29T00:41:57.154Z,100309.67
2023-04-29T00:45:01.164Z,100307.27
2023-04-29T00:48:05.260Z,100298.73
2023-04-29T00:51:10.233Z,100300.43
2023-04-29T00:54:14.333Z,100295.63
2023-04-29T00:57:19.997Z,100295.07
2023-04-29T01:00:26.383Z,100294.41
2023-04-29T01:03:32.651Z,100295.35
2023-04-29T01:06:58.571Z,100298.31
2023-04-29T01:10:22.780Z,100298.14
2023-04-29T01:13:40.489Z,100295.27
2023-04-29T01:16:55.546Z,100299.05
2023-04-29T01:20:00.969Z,100296.67
2023-04-29T01:23:05.049Z,100295.08
2023-04-29T01:26:09.344Z,100295.36
2023-04-29T01:29:46.264Z,100292.90
2023-04-29T01:33:03.473Z,100296.06
2023-04-29T01:36:20.685Z,100297.70
2023-04-29T01:39:46.011Z,100300.23
2023-04-29T01:43:02.003Z,100298.52
2023-04-29T01:46:09.539Z,100293.89
2023-04-29T01:49:13.925Z,100294.67
2023-04-29T01:52:18.169Z,100292.13
2023-04-29T01:55:29.633Z,100293.87
2023-04-29T01:58:47.989Z,100293.82
2023-04-29T02:02:10.538Z,100292.45
2023-04-29T02:05:18.432Z,100288.11
2023-04-29T02:08:29.374Z,100285.48
2023-04-29T02:11:33.542Z,100286.07
2023-04-29T02:14:38.998Z,100286.44
2023-04-29T02:17:43.444Z,100286.90
2023-04-29T02:20:49.982Z,100281.52
2023-04-29T02:23:54.637Z,100280.41
2023-04-29T02:27:00.692Z,100277.89
2023-04-29T02:30:06.404Z,100280.81
2023-04-29T02:33:10.508Z,100278.14
2023-04-29T02:36:14.586Z,100278.90
2023-04-29T02:39:20.143Z,100273.64
2023-04-29T02:42:24.271Z,100275.48
2023-04-29T02:45:28.205Z,100270.92
2023-04-29T02:48:32.185Z,100273.19
2023-04-29T02:51:36.122Z,100272.98
2023-04-29T02:54:40.221Z,100270.00
2023-04-29T02:57:44.531Z,100271.16
2023-04-29T03:00:48.553Z,100267.88
2023-04-29T03:03:52.859Z,100266.54
2023-04-29T03:06:57.095Z,100266.58
2023-04-29T03:10:03.014Z,100261.86
2023-04-29T03:13:07.687Z,100260.88
2023-04-29T03:16:17.009Z,100254.80
2023-04-29T03:19:21.398Z,100258.98
2023-04-29T03:22:26.889Z,100256.79
2023-04-29T03:25:31.325Z,100256.09
2023-04-29T03:28:35.299Z,100258.16
2023-04-29T03:31:39.333Z,100260.75
2023-04-29T03:34:43.575Z,100258.75
2023-04-29T03:38:07.867Z,100257.89
2023-04-29T03:41:12.701Z,100257.80
2023-04-29T03:44:16.734Z,100255.85
2023-04-29T03:47:20.635Z,100257.77
2023-04-29T03:50:26.276Z,100259.75
2023-04-29T03:53:30.916Z,100259.67
2023-04-29T03:56:34.917Z,100257.63
2023-04-29T03:59:38.946Z,100258.67
2023-04-29T04:02:43.119Z,100259.19
2023-04-29T04:05:47.443Z,100258.38
2023-04-29T04:08:52.420Z,100257.00
2023-04-29T04:12:01.695Z,100258.52
2023-04-29T04:15:06.879Z,100257.30
2023-04-29T04:18:10.811Z,100256.17
2023-04-29T04:21:15.819Z,100250.42
2023-04-29T04:24:23.369Z,100247.33
2023-04-29T04:27:27.554Z,100241.73
2023-04-29T04:30:36.078Z,100238.45
2023-04-29T04:33:41.007Z,100241.06
2023-04-29T04:36:45.770Z,100240.20
2023-04-29T04:39:50.052Z,100238.88
2023-04-29T04:42:55.623Z,100242.29
2023-04-29T04:46:00.448Z,100239.98
2023-04-29T04:49:05.812Z,100239.04
2023-04-29T04:52:12.092Z,100238.96
2023-04-29T04:55:16.305Z,100242.12
2023-04-29T04:58:22.176Z,100240.80
2023-04-29T05:01:26.348Z,100240.03
2023-04-29T05:04:30.558Z,100241.78
2023-04-29T05:07:37.711Z,100241.03
2023-04-29T05:10:42.375Z,100246.13
2023-04-29T05:13:48.717Z,100247.17
2023-04-29T05:16:53.283Z,100244.52
2023-04-29T05:19:57.666Z,100243.30
2023-04-29T05:23:02.720Z,100243.16
2023-04-29T05:26:09.869Z,100240.77
2023-04-29T05:29:14.015Z,100239.44
2023-04-29T05:32:31.658Z,100234.75
2023-04-29T05:35:35.741Z,100228.73
2023-04-29T05:38:40.065Z,100231.39
2023-04-29T05:41:46.046Z,100224.48
2023-04-29T05:45:09.798Z,100226.52
2023-04-29T05:48:14.096Z,100225.89
2023-04-29T05:51:18.164Z,100227.27
2023-04-29T05:54:22.180Z,100227.48
2023-04-29T05:57:26.195Z,100222.74
2023-04-29T06:00:31.956Z,100219.98
2023-04-29T06:03:38.445Z,100226.30
2023-04-29T06:07:06.015Z,100223.55
2023-04-29T06:10:26.088Z,100223.04
2023-04-29T06:13:31.026Z,100222.84
2023-04-29T06:16:35.091Z,100219.70
2023-04-29T06:19:39.260Z,100219.45
2023-04-29T06:22:43.171Z,100219.60
2023-04-29T06:25:47.378Z,100220.31
2023-04-29T06:28:51.610Z,100215.64
2023-04-29T06:31:56.382Z,100215.91
2023-04-29T06:35:01.322Z,100210.79
2023-04-29T06:38:24.024Z,100210.58
2023-04-29T06:41:46.684Z,100206.39
2023-04-29T06:45:10.043Z,100206.69
2023-04-29T06:48:23.057Z,100201.59
2023-04-29T06:51:28.039Z,100203.77
2023-04-29T06:54:32.007Z,100205.06
2023-04-29T06:57:36.990Z,100207.63
2023-04-29T07:00:41.099Z,100203.70
2023-04-29T07:03:45.356Z,100205.64
2023-04-29T07:06:49.561Z,100208.39
2023-04-29T07:09:54.606Z,100203.88
2023-04-29T07:13:00.547Z,100201.08
2023-04-29T07:16:05.125Z,100197.66
2023-04-29T07:19:09.073Z,100197.95
2023-04-29T07:22:13.161Z,100194.98
2023-04-29T07:25:17.124Z,100195.79
2023-04-29T07:28:21.236Z,100196.34
2023-04-29T07:31:25.330Z,100193.36
2023-04-29T07:34:29.586Z,100194.45
2023-04-29T07:37:33.793Z,100191.03
2023-04-29T07:40:37.695Z,100192.59
2023-04-29T07:43:42.619Z,100190.64
2023-04-29T07:46:46.898Z,100186.67
2023-04-29T07:49:51.705Z,100186.44
2023-04-29T07:52:57.845Z,100187.01
2023-04-29T07:56:06.585Z,100186.03
2023-04-29T07:59:10.696Z,100188.52
2023-04-29T08:02:16.808Z,100189.06
2023-04-29T08:05:22.599Z,100191.69
2023-04-29T08:08:26.927Z,100195.41
2023-04-29T08:11:30.968Z,100195.36
2023-04-29T08:14:34.980Z,100194.63
2023-04-29T08:17:39.050Z,100191.77
2023-04-29T08:20:43.133Z,100189.77
2023-04-29T08:23:47.231Z,100191.40
2023-04-29T08:26:52.576Z,100192.58
2023-04-29T08:29:56.697Z,100193.14
2023-04-29T08:33:00.938Z,100185.05
2023-04-29T08:36:06.086Z,100185.91
2023-04-29T08:39:10.408Z,100188.63
2023-04-29T08:42:14.387Z,100184.31
2023-04-29T08:45:20.372Z,100180.96
2023-04-29T08:48:26.763Z,100180.73
2023-04-29T08:51:32.360Z,100181.67
2023-04-29T08:54:36.381Z,100176.73
2023-04-29T08:57:42.163Z,100179.58
2023-04-29T09:00:46.576Z,100179.24
2023-04-29T09:04:25.738Z,100175.04
2023-04-29T09:07:32.096Z,100171.95
2023-04-29T09:10:37.943Z,100168.39
2023-04-29T09:13:41.913Z,100165.90
2023-04-29T09:16:48.921Z,100165.35
2023-04-29T09:19:52.957Z,100164.30
2023-04-29T09:22:59.982Z,100165.36
2023-04-29T09:26:04.061Z,100169.38
2023-04-29T09:29:09.230Z,100160.98
2023-04-29T09:32:19.971Z,100162.81
2023-04-29T09:35:28.305Z,100160.24
2023-04-29T09:38:32.374Z,100152.99
2023-04-29T09:41:36.353Z,100151.55
2023-04-29T09:44:42.559Z,100145.74
2023-04-29T09:47:46.839Z,100146.56
2023-04-29T09:51:02.295Z,100139.59
2023-04-29T09:54:22.017Z,100140.02
2023-04-29T09:57:42.630Z,100140.55
2023-04-29T10:00:48.764Z,100133.80
2023-04-29T10:03:55.627Z,100129.41
2023-04-29T10:07:01.183Z,100127.16
2023-04-29T10:10:06.494Z,100126.90
2023-04-29T10:13:10.538Z,100121.27
2023-04-29T10:16:31.438Z,100115.58
2023-04-29T10:19:45.799Z,100112.12
2023-04-29T10:22:52.164Z,100109.83
2023-04-29T10:26:00.114Z,100108.36
2023-04-29T10:29:05.530Z,100100.52
2023-04-29T10:32:10.989Z,100103.41
2023-04-29T10:35:16.758Z,100097.84
2023-04-29T10:38:26.724Z,100092.86
2023-04-29T10:41:37.266Z,100087.55
2023-04-29T10:45:18.688Z,100082.20
2023-04-29T10:48:24.748Z,100078.61
2023-04-29T10:51:48.950Z,100079.66
2023-04-29T10:55:03.987Z,100074.95
2023-04-29T10:58:46.169Z,100073.26
2023-04-29T11:01:52.276Z,100069.75
2023-04-29T11:05:10.668Z,100073.42
2023-04-29T11:08:24.317Z,100076.41
2023-04-29T11:11:58.413Z,100070.58
2023-04-29T11:15:05.125Z,100063.52
2023-04-29T11:18:11.638Z,100065.86
2023-04-29T11:21:15.776Z,100069.05
2023-04-29T11:24:19.934Z,100066.23
2023-04-29T11:27:26.798Z,100068.34
2023-04-29T11:30:32.092Z,100064.80
2023-04-29T11:33:36.404Z,100058.23
2023-04-29T11:36:40.653Z,100064.37
2023-04-29T11:39:44.693Z,100060.91
2023-04-29T11:42:49.752Z,100062.28
2023-04-29T11:45:54.338Z,100058.60
2023-04-29T11:49:00.313Z,100051.58
2023-04-29T11:52:04.565Z,100050.02
2023-04-29T11:55:12.057Z,100047.84
2023-04-29T11:58:16.868Z,100042.11
2023-04-29T12:01:21.691Z,100042.77
2023-04-29T12:04:26.272Z,100042.13
2023-04-29T12:07:30.453Z,100040.41
2023-04-29T12:10:36.933Z,100042.53
2023-04-29T12:13:41.564Z,100037.77
2023-04-29T12:16:46.486Z,100034.33
2023-04-29T12:19:51.741Z,100035.73
2023-04-29T12:22:55.940Z,100036.67
2023-04-29T12:26:01.028Z,100037.66
2023-04-29T12:29:05.211Z,100035.23
2023-04-29T12:32:16.813Z,100030.38
2023-04-29T12:35:22.048Z,100027.11
2023-04-29T12:38:28.311Z,100023.52
2023-04-29T12:41:42.404Z,100022.72
2023-04-29T12:44:47.794Z,100016.87
2023-04-29T12:47:52.174Z,100014.41
2023-04-29T12:50:58.525Z,100013.98
2023-04-29T12:54:04.297Z,100014.53
2023-04-29T12:57:10.113Z,100002.85
2023-04-29T13:00:15.697Z,99998.92
2023-04-29T13:03:22.181Z,100003.06
2023-04-29T13:06:27.407Z,99999.40
2023-04-29T13:09:31.620Z,100000.85
2023-04-29T13:12:35.730Z,100000.48
2023-04-29T13:15:39.758Z,99998.71
2023-04-29T13:18:53.668Z,99995.79
2023-04-29T13:22:07.890Z,99994.31
2023-04-29T13:25:12.416Z,99995.96
2023-04-29T13:28:16.610Z,99996.52
2023-04-29T13:31:21.261Z,99986.48
2023-04-29T13:34:25.364Z,99990.74
2023-04-29T13:37:29.381Z,99984.12
2023-04-29T13:40:38.369Z,99981.30
2023-04-29T13:43:43.634Z,99981.63
2023-04-29T13:46:48.015Z,99981.33
2023-04-29T13:53:23.641Z,99981.53
2023-04-29T14:02:39.821Z,99983.10
2023-04-29T14:05:44.571Z,99979.73
2023-04-29T14:08:48.645Z,99975.99
2023-04-29T14:11:52.678Z,99977.22
2023-04-29T14:14:59.481Z,99976.11
2023-04-29T14:18:04.418Z,99971.33
2023-04-29T14:21:08.926Z,99971.25
2023-04-29T14:24:13.439Z,99975.92
2023-04-29T14:27:17.290Z,99972.30
2023-04-29T14:30:21.685Z,99974.73
2023-04-29T14:33:25.713Z,99976.75
2023-04-29T14:36:29.644Z,99970.54
2023-04-29T14:39:33.621Z,99968.90
2023-04-29T14:42:37.736Z,99965.87
2023-04-29T14:45:42.191Z,99968.30
2023-04-29T14:48:46.382Z,99965.84
2023-04-29T14:51:50.277Z,99965.81
2023-04-29T14:54:54.647Z,99962.55
2023-04-29T14:57:58.842Z,99965.65
2023-04-29T15:01:02.853Z,99963.85
2023-04-29T15:04:07.493Z,99967.30
2023-04-29T15:07:15.824Z,99968.00
2023-04-29T15:10:19.803Z,99965.89
2023-04-29T15:13:23.821Z,99966.52
2023-04-29T15:16:28.740Z,99963.96
2023-04-29T15:19:32.893Z,99964.96
2023-04-29T15:22:37.095Z,99966.38
2023-04-29T15:25:40.991Z,99969.46
2023-04-29T15:28:46.166Z,99967.39
2023-04-29T15:31:50.254Z,99972.05
2023-04-29T15:34:55.634Z,99972.69
2023-04-29T15:37:59.657Z,99973.81
2023-04-29T15:41:04.117Z,99974.34
2023-04-29T15:44:08.087Z,99970.40
2023-04-29T15:47:12.103Z,99973.38
2023-04-29T15:50:16.428Z,99966.81
2023-04-29T15:53:20.311Z,99965.17
2023-04-29T15:56:25.564Z,99957.23
2023-04-29T15:59:30.583Z,99955.61
2023-04-29T16:02:34.701Z,99959.49
2023-04-29T16:05:38.866Z,99960.52
2023-04-29T16:08:42.776Z,99958.61
2023-04-29T16:11:47.099Z,99960.58
2023-04-29T16:14:51.544Z,99961.64
2023-04-29T16:17:55.666Z,99958.98
2023-04-29T16:20:59.682Z,99955.83
2023-04-29T16:24:03.757Z,99962.50
2023-04-29T16:27:07.667Z,99959.52
2023-04-29T16:30:12.140Z,99960.17
2023-04-29T16:33:16.501Z,99964.08
2023-04-29T16:36:20.563Z,99970.69
2023-04-29T16:39:24.571Z,99973.92
2023-04-29T16:42:28.591Z,99970.48
2023-04-29T16:45:32.837Z,99973.71
2023-04-29T16:48:36.845Z,99970.98
2023-04-29T16:51:40.948Z,99974.46
2023-04-29T16:54:44.864Z,99975.95
2023-04-29T16:57:48.811Z,99980.27
2023-04-29T17:00:53.805Z,99981.10
2023-04-29T17:03:58.065Z,99988.09
2023-04-29T17:07:03.056Z,99995.48
2023-04-29T17:10:08.284Z,99995.05
2023-04-29T17:13:12.182Z,100002.92
2023-04-29T17:16:17.069Z,100005.81
2023-04-29T17:19:21.181Z,100009.25
2023-04-29T17:22:25.200Z,100007.91
2023-04-29T17:25:29.149Z,100008.70
2023-04-29T17:28:33.140Z,100007.41
2023-04-29T17:31:48.108Z,100008.08
2023-04-29T17:34:53.245Z,100009.96
2023-04-29T17:37:57.361Z,100011.30
2023-04-29T17:41:02.331Z,100004.83
2023-04-29T17:44:08.042Z,100011.67
2023-04-29T17:47:12.801Z,100008.88
2023-04-29T17:50:17.017Z,100007.61
2023-04-29T17:53:21.012Z,100009.41
2023-04-29T17:56:26.357Z,100013.00
2023-04-29T17:59:30.895Z,100008.65
2023-04-29T18:02:34.996Z,100009.65
2023-04-29T18:05:39.336Z,100008.95
2023-04-29T18:08:43.330Z,100013.00
2023-04-29T18:11:47.463Z,100012.72
2023-04-29T18:14:52.043Z,100013.05
2023-04-29T18:17:56.133Z,100016.85
2023-04-29T18:21:00.137Z,100020.69
2023-04-29T18:24:04.241Z,100022.02
2023-04-29T18:27:08.287Z,100026.70
2023-04-29T18:30:13.292Z,100029.06
2023-04-29T18:33:17.398Z,100035.99
2023-04-29T18:36:21.633Z,100038.34
2023-04-29T18:39:25.661Z,100042.27
2023-04-29T18:42:30.742Z,100042.63
2023-04-29T18:45:35.119Z,100046.90
2023-04-29T18:48:40.591Z,100048.83
2023-04-29T18:51:47.990Z,100046.71
2023-04-29T18:54:52.391Z,100047.02
2023-04-29T18:57:56.498Z,100047.81
2023-04-29T19:01:02.700Z,100052.91
2023-04-29T19:04:08.620Z,100053.39
2023-04-29T19:07:13.858Z,100053.96
2023-04-29T19:10:17.895Z,100055.55
2023-04-29T19:13:22.127Z,100054.56
2023-04-29T19:16:26.683Z,100055.56
2023-04-29T19:19:30.967Z,100058.18
2023-04-29T19:22:34.982Z,100057.27
2023-04-29T19:25:39.311Z,100059.72
2023-04-29T19:28:43.336Z,100059.34
2023-04-29T19:31:47.376Z,100058.57
2023-04-29T19:34:51.438Z,100060.71
2023-04-29T19:37:55.568Z,100059.71
2023-04-29T19:40:59.493Z,100055.75
2023-04-29T19:44:03.505Z,100062.77
2023-04-29T19:47:07.477Z,100063.01
2023-04-29T19:50:11.490Z,100064.39
2023-04-29T19:53:15.471Z,100063.89
2023-04-29T19:56:20.069Z,100063.95
2023-04-29T19:59:24.004Z,100063.26
2023-04-29T20:02:28.021Z,100065.54
2023-04-29T20:05:32.212Z,100067.21
2023-04-29T20:08:37.301Z,100064.23
2023-04-29T20:11:41.293Z,100067.52
2023-04-29T20:14:45.709Z,100061.63
2023-04-29T20:17:49.759Z,100061.25
2023-04-29T20:20:53.748Z,100063.09
2023-04-29T20:23:57.675Z,100068.27
2023-04-29T20:27:01.665Z,100067.81
2023-04-29T20:30:06.575Z,100064.73
2023-04-29T20:33:10.605Z,100062.75
2023-04-29T20:36:14.557Z,100060.22
2023-04-29T20:39:18.758Z,100064.02
2023-04-29T20:42:22.682Z,100060.55
2023-04-29T20:45:26.790Z,100057.95
2023-04-29T20:48:30.902Z,100058.86
2023-04-29T20:51:34.921Z,100051.56
2023-04-29T20:54:39.179Z,100049.23
2023-04-29T20:57:43.141Z,100052.52
2023-04-29T21:00:47.052Z,100052.25
2023-04-29T21:03:52.212Z,100059.00
2023-04-29T21:06:56.231Z,100058.56
2023-04-29T21:10:00.193Z,100058.26
2023-04-29T21:13:04.370Z,100059.20
2023-04-29T21:16:08.546Z,100063.09
2023-04-29T21:19:12.585Z,100059.27
2023-04-29T21:22:16.523Z,100065.84
2023-04-29T21:25:20.531Z,100068.83
2023-04-29T21:28:24.553Z,100068.98
2023-04-29T21:31:30.260Z,100071.54
2023-04-29T21:34:35.454Z,100071.18
2023-04-29T21:37:39.466Z,100067.16
2023-04-29T21:40:46.631Z,100064.30
2023-04-29T21:43:50.998Z,100063.58
2023-04-29T21:46:55.228Z,100064.83
2023-04-29T21:49:59.403Z,100067.25
2023-04-29T21:53:03.610Z,100065.88
2023-04-29T21:56:07.937Z,100069.21
2023-04-29T21:59:11.820Z,100067.07
2023-04-29T22:02:22.393Z,100065.83
2023-04-29T22:05:26.982Z,100064.09
2023-04-29T22:08:30.937Z,100061.64
2023-04-29T22:11:35.005Z,100060.94
2023-04-29T22:14:39.011Z,100064.55
2023-04-29T22:17:43.102Z,100063.56
2023-04-29T22:20:47.232Z,100063.51
2023-04-29T22:23:51.269Z,100066.73
2023-04-29T22:26:55.405Z,100061.05
2023-04-29T22:29:59.577Z,100058.05
2023-04-29T22:33:03.655Z,100058.58
2023-04-29T22:36:07.840Z,100057.31
2023-04-29T22:39:11.964Z,100054.09
2023-04-29T22:42:15.874Z,100058.11
2023-04-29T22:45:19.824Z,100057.20
2023-04-29T22:48:26.578Z,100059.01
2023-04-29T22:51:32.325Z,100060.13
2023-04-29T22:54:36.337Z,100059.25
2023-04-29T22:57:40.465Z,100061.94
2023-04-29T23:00:52.870Z,100064.10
2023-04-29T23:03:56.989Z,100070.62
2023-04-29T23:07:00.902Z,100076.00
2023-04-29T23:10:05.923Z,100073.27
2023-04-29T23:13:09.866Z,100071.73
2023-04-29T23:16:13.925Z,100073.05
2023-04-29T23:19:17.943Z,100070.29
2023-04-29T23:22:21.876Z,100068.85
2023-04-29T23:25:26.126Z,100071.67
2023-04-29T23:28:30.178Z,100071.96
2023-04-29T23:31:34.251Z,100070.98
2023-04-29T23:34:38.214Z,100063.33
2023-04-29T23:37:42.248Z,100061.81
2023-04-29T23:40:47.078Z,100060.98
2023-04-29T23:43:51.042Z,100061.46
2023-04-29T23:46:55.058Z,100056.15
2023-04-29T23:49:58.958Z,100052.92
2023-04-29T23:53:03.184Z,100054.41
2023-04-29T23:56:08.068Z,100053.06
2023-04-29T23:59:12.035Z,100051.71
